createdAt,value
2022-12-04T06:41:38.942Z,-3.01
2022-12-04T06:44:07.022Z,-2.96
2022-12-04T06:46:34.993Z,-2.97
2022-12-04T06:49:03.245Z,-2.97
2022-12-04T06:51:36.467Z,-3.01
2022-12-04T06:54:05.112Z,-2.97
2022-12-04T06:56:33.739Z,-3.01
2022-12-04T06:59:04.210Z,-2.97
2022-12-04T07:01:34.503Z,-3.11
2022-12-04T07:04:04.092Z,-3.01
2022-12-04T07:06:33.966Z,-3.06
2022-12-04T07:09:04.602Z,-3.04
2022-12-04T07:11:32.530Z,-3.01
2022-12-04T07:14:00.429Z,-2.98
2022-12-04T07:16:31.807Z,-2.97
2022-12-04T07:19:03.846Z,-2.95
2022-12-04T07:21:32.136Z,-3.00
2022-12-04T07:24:01.378Z,-3.02
2022-12-04T07:26:30.591Z,-2.97
2022-12-04T07:28:59.047Z,-3.05
2022-12-04T07:31:29.572Z,-3.20
2022-12-04T07:33:58.772Z,-3.14
2022-12-04T07:36:27.522Z,-3.09
2022-12-04T07:38:55.702Z,-3.03
2022-12-04T07:41:24.116Z,-3.05
2022-12-04T07:43:52.032Z,-3.13
2022-12-04T07:46:22.537Z,-3.10
2022-12-04T07:48:51.740Z,-3.09
2022-12-04T07:51:20.942Z,-3.04
2022-12-04T07:53:50.209Z,-3.02
2022-12-04T07:56:18.771Z,-3.04
2022-12-04T07:58:47.436Z,-3.00
2022-12-04T08:01:17.060Z,-3.03
2022-12-04T08:34:15.900Z,-3.09
2022-12-04T08:36:43.768Z,-3.18
2022-12-04T08:39:11.895Z,-3.17
2022-12-04T08:41:39.984Z,-3.16
2022-12-04T08:44:08.973Z,-3.23
2022-12-04T08:46:36.949Z,-3.18
2022-12-04T08:49:04.812Z,-3.19
2022-12-04T08:51:34.154Z,-3.24
2022-12-04T08:54:04.462Z,-3.22
2022-12-04T08:56:33.649Z,-3.22
2022-12-04T08:59:02.027Z,-3.20
2022-12-04T09:01:30.454Z,-3.20
2022-12-04T09:03:58.803Z,-3.20
2022-12-04T09:06:26.537Z,-3.20
2022-12-04T09:08:56.819Z,-3.24
2022-12-04T09:11:26.575Z,-3.21
2022-12-04T09:13:54.720Z,-3.18
2022-12-04T09:16:24.475Z,-3.24
2022-12-04T09:18:53.049Z,-3.26
2022-12-04T09:21:22.864Z,-3.17
2022-12-04T09:23:51.183Z,-3.23
2022-12-04T09:26:26.054Z,-3.24
2022-12-04T09:28:54.914Z,-3.26
2022-12-04T09:31:23.837Z,-3.26
2022-12-04T09:33:51.937Z,-3.31
2022-12-04T09:36:20.137Z,-3.26
2022-12-04T09:38:49.206Z,-3.26
2022-12-04T09:41:47.960Z,-3.26
2022-12-04T09:44:21.595Z,-3.27
2022-12-04T09:46:54.921Z,-3.20
2022-12-04T09:49:27.660Z,-3.29
2022-12-04T09:52:00.620Z,-3.29
2022-12-04T09:54:32.879Z,-3.32
2022-12-04T09:57:08.912Z,-3.34
2022-12-04T09:59:38.351Z,-3.38
2022-12-04T10:02:28.719Z,-3.35
2022-12-04T10:04:56.746Z,-3.41
2022-12-04T10:07:28.941Z,-3.38
2022-12-04T10:10:03.116Z,-3.33
2022-12-04T10:12:46.588Z,-3.38
2022-12-04T10:15:26.433Z,-3.33
2022-12-04T10:18:06.482Z,-3.24
2022-12-04T10:21:00.740Z,-3.22
2022-12-04T10:23:38.769Z,-3.24
2022-12-04T10:26:14.750Z,-3.33
2022-12-04T10:28:53.542Z,-3.26
2022-12-04T10:31:24.902Z,-3.36
2022-12-04T10:33:56.444Z,-3.26
2022-12-04T10:36:29.433Z,-3.22
2022-12-04T10:38:59.790Z,-3.21
2022-12-04T10:41:33.760Z,-3.25
2022-12-04T10:44:03.132Z,-3.24
2022-12-04T10:46:33.872Z,-3.22
2022-12-04T10:49:05.653Z,-3.21
2022-12-04T10:51:38.496Z,-3.21
2022-12-04T10:54:18.733Z,-3.14
2022-12-04T10:56:54.337Z,-3.25
2022-12-04T10:59:23.924Z,-3.27
2022-12-04T11:02:03.083Z,-3.23
2022-12-04T11:04:35.483Z,-3.23
2022-12-04T11:07:05.870Z,-3.25
2022-12-04T11:09:34.320Z,-3.35
2022-12-04T11:12:08.155Z,-3.33
2022-12-04T11:14:38.250Z,-3.30
2022-12-04T11:17:07.846Z,-3.28
2022-12-04T11:19:36.153Z,-3.31
2022-12-04T11:22:14.136Z,-3.23
2022-12-04T11:24:43.382Z,-3.34
2022-12-04T11:27:20.086Z,-3.23
2022-12-04T11:29:50.485Z,-3.22
2022-12-04T11:32:22.898Z,-3.29
2022-12-04T11:34:52.830Z,-3.27
2022-12-04T11:37:25.042Z,-3.26
2022-12-04T11:39:55.479Z,-3.21
2022-12-04T11:42:25.521Z,-3.15
2022-12-04T11:44:56.635Z,-3.20
2022-12-04T11:47:27.023Z,-3.14
2022-12-04T11:50:00.832Z,-3.15
2022-12-04T11:52:39.004Z,-3.16
2022-12-04T11:55:15.447Z,-3.22
2022-12-04T11:57:50.238Z,-3.28
2022-12-04T12:00:21.564Z,-3.29
2022-12-04T12:03:09.792Z,-3.27
2022-12-04T12:06:01.062Z,-3.28
2022-12-04T12:08:43.395Z,-3.27
2022-12-04T12:11:26.007Z,-3.26
2022-12-04T12:14:04.312Z,-3.20
2022-12-04T12:16:50.065Z,-3.21
2022-12-04T12:19:36.704Z,-3.17
2022-12-04T20:41:38.457Z,-3.64
2022-12-04T20:44:08.366Z,-3.65
2022-12-04T20:46:39.510Z,-3.68
2022-12-04T20:49:18.768Z,-3.70
2022-12-04T20:51:49.376Z,-3.64
2022-12-04T20:54:20.338Z,-3.64
2022-12-04T20:56:50.459Z,-3.66
2022-12-04T20:59:22.606Z,-3.70
2022-12-04T21:01:51.795Z,-3.71
2022-12-04T21:04:20.081Z,-3.72
2022-12-04T21:06:48.009Z,-3.80
2022-12-04T21:09:18.142Z,-3.77
2022-12-04T21:11:47.762Z,-3.79
2022-12-04T21:14:18.910Z,-3.87
2022-12-04T21:16:47.884Z,-3.89
2022-12-04T21:19:17.204Z,-3.84
2022-12-04T21:21:45.558Z,-3.86
2022-12-04T21:24:14.617Z,-3.92
2022-12-04T21:26:42.647Z,-3.91
2022-12-04T21:29:11.094Z,-3.86
2022-12-04T21:31:40.514Z,-3.92
2022-12-04T21:34:11.236Z,-4.01
2022-12-04T21:36:39.135Z,-3.99
2022-12-04T21:39:07.327Z,-4.03
2022-12-04T21:41:35.284Z,-4.04
2022-12-04T21:44:04.311Z,-4.05
2022-12-04T21:46:32.117Z,-4.12
2022-12-04T21:49:01.283Z,-4.10
2022-12-04T21:51:55.809Z,-4.09
2022-12-04T21:54:16.786Z,-4.10
2022-12-04T21:56:44.746Z,-4.11
2022-12-04T21:59:12.609Z,-4.12
2022-12-04T22:01:41.102Z,-4.14
2022-12-04T22:04:10.255Z,-4.11
2022-12-04T22:06:38.727Z,-4.12
2022-12-04T22:09:08.677Z,-4.05
2022-12-04T22:11:36.770Z,-4.05
2022-12-04T22:14:04.925Z,-4.10
2022-12-04T22:16:36.947Z,-4.04
2022-12-04T22:19:07.723Z,-4.07
2022-12-04T22:21:37.545Z,-4.09
2022-12-04T22:24:06.027Z,-4.07
2022-12-04T22:26:33.686Z,-4.05
2022-12-04T22:29:03.173Z,-4.09
2022-12-04T22:31:32.488Z,-4.09
2022-12-04T22:34:01.511Z,-4.09
2022-12-04T22:36:31.834Z,-4.11
2022-12-04T22:39:10.212Z,-4.12
2022-12-04T22:41:39.059Z,-4.22
2022-12-04T22:44:06.652Z,-4.23
2022-12-04T22:46:34.577Z,-4.25
2022-12-04T22:49:02.372Z,-4.26
2022-12-04T22:51:30.190Z,-4.31
2022-12-04T22:53:58.735Z,-4.25
2022-12-04T22:56:29.866Z,-4.27
2022-12-04T22:58:58.453Z,-4.33
2022-12-04T23:01:28.322Z,-4.37
2022-12-04T23:03:56.390Z,-4.39
2022-12-04T23:06:25.969Z,-4.45
2022-12-04T23:08:55.324Z,-4.47
2022-12-04T23:11:24.364Z,-4.47
2022-12-04T23:13:56.202Z,-4.49
2022-12-04T23:16:25.177Z,-4.50
2022-12-04T23:18:53.340Z,-4.48
2022-12-04T23:21:22.127Z,-4.50
2022-12-04T23:23:52.413Z,-4.53
2022-12-04T23:26:21.559Z,-4.56
2022-12-04T23:28:49.503Z,-4.54
2022-12-04T23:31:19.165Z,-4.54
2022-12-04T23:33:46.855Z,-4.52
2022-12-04T23:36:15.629Z,-4.52
2022-12-04T23:38:44.641Z,-4.51
2022-12-04T23:41:14.799Z,-4.52
2022-12-04T23:43:43.014Z,-4.51
2022-12-04T23:46:12.842Z,-4.50
2022-12-04T23:48:43.680Z,-4.48
2022-12-04T23:51:13.479Z,-4.53
2022-12-04T23:53:41.398Z,-4.48
2022-12-04T23:56:12.480Z,-4.47
2022-12-04T23:58:42.089Z,-4.46
